createdAt,value
2019-05-09T00:01:35.153Z,95.40
2019-05-09T00:04:04.451Z,95.40
2019-05-09T00:06:34.432Z,95.20
2019-05-09T00:09:05.395Z,95.20
2019-05-09T00:11:34.927Z,95.40
2019-05-09T00:14:04.720Z,95.80
2019-05-09T00:16:34.243Z,95.40
2019-05-09T00:19:03.896Z,95.50
2019-05-09T00:21:38.855Z,95.40
2019-05-09T00:24:08.324Z,95.70
2019-05-09T00:26:37.866Z,95.70
2019-05-09T00:29:14.076Z,95.80
2019-05-09T00:32:08.741Z,95.90
2019-05-09T00:34:48.599Z,95.90
2019-05-09T00:37:18.477Z,96.10
2019-05-09T00:39:48.027Z,96.20
2019-05-09T00:42:17.574Z,96.30
2019-05-09T00:44:49.516Z,96.40
2019-05-09T00:47:27.078Z,96.30
2019-05-09T00:49:56.386Z,96.40
2019-05-09T00:52:25.947Z,96.40
2019-05-09T00:54:55.595Z,96.40
2019-05-09T00:57:33.741Z,96.50
2019-05-09T01:00:06.268Z,96.40
2019-05-09T01:02:35.840Z,96.40
2019-05-09T01:05:05.379Z,96.30
2019-05-09T01:07:35.270Z,96.20
2019-05-09T01:10:04.658Z,96.10
2019-05-09T01:12:34.193Z,96.20
2019-05-09T01:15:03.622Z,95.90
2019-05-09T01:17:33.510Z,96.10
2019-05-09T01:20:03.602Z,96.10
2019-05-09T01:22:33.357Z,96.10
2019-05-09T01:25:04.203Z,96.10
2019-05-09T01:27:34.077Z,96.00
2019-05-09T01:30:04.611Z,96.10
2019-05-09T01:32:53.928Z,96.10
2019-05-09T01:35:23.354Z,96.00
2019-05-09T01:37:53.926Z,95.90
2019-05-09T01:40:23.949Z,96.00
2019-05-09T01:42:53.881Z,96.10
2019-05-09T01:45:23.797Z,96.10
2019-05-09T01:47:53.937Z,95.90
2019-05-09T01:50:23.388Z,96.00
2019-05-09T01:52:53.327Z,96.10
2019-05-09T01:55:25.930Z,96.20
2019-05-09T01:57:55.428Z,96.20
2019-05-09T02:00:25.098Z,96.00
2019-05-09T02:02:54.369Z,95.90
2019-05-09T02:05:24.154Z,95.90
2019-05-09T02:07:54.225Z,95.80
2019-05-09T02:10:23.799Z,95.80
2019-05-09T02:12:53.840Z,95.90
2019-05-09T02:15:35.735Z,95.80
2019-05-09T02:18:14.383Z,95.80
2019-05-09T02:20:44.079Z,95.60
2019-05-09T02:23:14.016Z,95.60
2019-05-09T02:25:43.900Z,95.60
2019-05-09T02:28:14.204Z,95.50
2019-05-09T02:30:45.045Z,95.50
2019-05-09T02:33:15.466Z,95.40
2019-05-09T02:35:52.871Z,95.40
2019-05-09T02:38:15.860Z,95.30
2019-05-09T02:40:45.115Z,95.30
2019-05-09T02:43:14.785Z,95.50
2019-05-09T02:45:52.790Z,95.40
2019-05-09T02:48:22.101Z,95.40
2019-05-09T02:50:51.555Z,95.40
2019-05-09T02:53:21.021Z,95.50
2019-05-09T02:55:50.357Z,95.80
2019-05-09T02:58:22.122Z,95.80
2019-05-09T03:01:08.220Z,96.00
2019-05-09T03:03:39.384Z,96.10
2019-05-09T03:06:09.415Z,96.30
2019-05-09T03:08:38.772Z,96.40
2019-05-09T03:11:09.814Z,96.60
2019-05-09T03:13:39.618Z,96.70
2019-05-09T03:16:13.179Z,96.70
2019-05-09T03:18:42.564Z,96.80
2019-05-09T03:21:29.379Z,96.80
2019-05-09T03:23:59.435Z,96.90
2019-05-09T03:26:32.548Z,97.00
2019-05-09T03:29:13.867Z,97.20
2019-05-09T03:31:43.781Z,97.10
2019-05-09T03:34:13.047Z,97.10
2019-05-09T03:36:42.598Z,97.30
2019-05-09T03:39:12.012Z,96.90
2019-05-09T03:41:41.266Z,96.90
2019-05-09T03:44:10.929Z,96.70
2019-05-09T03:47:11.410Z,96.60
2019-05-09T03:49:40.780Z,96.40
2019-05-09T03:52:10.359Z,96.30
2019-05-09T03:54:39.647Z,96.40
2019-05-09T03:57:28.614Z,96.30
2019-05-09T03:59:58.304Z,96.30
2019-05-09T04:02:28.187Z,96.20
2019-05-09T04:04:58.222Z,96.10
2019-05-09T04:07:28.001Z,96.10
2019-05-09T04:09:59.211Z,96.00
2019-05-09T04:12:28.483Z,95.90
2019-05-09T04:14:58.472Z,95.90
2019-05-09T04:17:43.143Z,96.00
2019-05-09T04:20:13.843Z,96.00
2019-05-09T04:22:43.155Z,95.90
2019-05-09T04:25:17.972Z,96.00
2019-05-09T04:27:48.196Z,96.00
2019-05-09T04:30:18.323Z,95.90
2019-05-09T04:32:48.250Z,95.90
2019-05-09T04:35:17.850Z,95.80
2019-05-09T04:37:48.244Z,95.70
2019-05-09T04:40:18.022Z,95.60
2019-05-09T04:42:47.528Z,95.40
2019-05-09T04:45:37.513Z,95.30
2019-05-09T04:48:03.475Z,95.40
2019-05-09T04:50:32.867Z,95.20
2019-05-09T04:53:02.479Z,95.10
2019-05-09T04:55:33.377Z,95.00
2019-05-09T04:58:02.976Z,94.90
2019-05-09T05:00:54.099Z,94.70
2019-05-09T05:03:23.386Z,94.60
2019-05-09T05:05:52.988Z,94.50
2019-05-09T05:08:22.315Z,94.30
2019-05-09T05:10:51.896Z,94.30
2019-05-09T05:13:26.307Z,94.40
2019-05-09T05:15:52.560Z,94.40
2019-05-09T05:18:22.137Z,94.70
2019-05-09T05:20:52.089Z,94.70
2019-05-09T05:23:27.692Z,94.80
2019-05-09T05:25:58.012Z,94.70
2019-05-09T05:28:27.910Z,94.80
2019-05-09T05:30:58.270Z,94.50
2019-05-09T05:33:57.749Z,94.50
2019-05-09T05:36:27.993Z,94.00
2019-05-09T05:38:58.505Z,93.60
2019-05-09T05:41:28.549Z,93.30
2019-05-09T05:43:58.293Z,93.30
2019-05-09T05:46:34.740Z,93.20
2019-05-09T05:49:04.238Z,93.00
2019-05-09T05:51:49.400Z,93.00
2019-05-09T05:54:20.488Z,92.40
2019-05-09T05:56:49.940Z,92.40
2019-05-09T05:59:19.640Z,92.20
2019-05-09T06:01:49.213Z,92.20
2019-05-09T06:04:18.932Z,92.40
2019-05-09T06:06:48.507Z,92.30
2019-05-09T06:09:19.127Z,92.20
2019-05-09T06:11:48.860Z,92.00
2019-05-09T06:14:18.788Z,91.70
2019-05-09T06:16:48.865Z,91.60
2019-05-09T06:19:18.387Z,91.70
2019-05-09T06:21:49.276Z,91.50
2019-05-09T06:24:18.926Z,90.90
2019-05-09T06:26:48.925Z,90.60
2019-05-09T06:29:18.548Z,90.60
2019-05-09T06:31:48.575Z,90.20
2019-05-09T06:34:18.720Z,90.10
2019-05-09T06:36:49.122Z,89.50
2019-05-09T06:39:18.774Z,89.30
2019-05-09T06:41:48.555Z,89.30
2019-05-09T06:44:37.501Z,88.60
2019-05-09T06:47:15.081Z,87.70
2019-05-09T06:49:49.850Z,86.80
2019-05-09T06:52:18.311Z,87.00
2019-05-09T06:54:48.634Z,85.90
2019-05-09T06:57:18.711Z,86.10
2019-05-09T06:59:48.902Z,85.90
2019-05-09T07:02:43.670Z,85.10
2019-05-09T07:05:32.899Z,84.90
2019-05-09T07:08:10.228Z,84.50
2019-05-09T07:10:39.579Z,82.20
2019-05-09T07:13:09.222Z,80.70
2019-05-09T07:15:38.841Z,79.30
2019-05-09T07:18:08.318Z,77.90
2019-05-09T07:20:38.284Z,77.10
2019-05-09T07:23:09.052Z,76.30
2019-05-09T07:25:58.207Z,76.30
2019-05-09T07:28:28.647Z,75.00
2019-05-09T07:31:17.758Z,74.10
2019-05-09T07:34:15.588Z,74.00
2019-05-09T07:36:44.920Z,73.00
2019-05-09T07:39:14.200Z,73.50
2019-05-09T07:41:43.800Z,73.60
2019-05-09T07:44:13.677Z,72.90
2019-05-09T07:47:11.577Z,72.40
2019-05-09T07:49:41.587Z,72.80
2019-05-09T07:52:10.860Z,72.00
2019-05-09T07:54:40.148Z,71.70
2019-05-09T07:57:09.923Z,71.60
2019-05-09T07:59:39.290Z,71.20
2019-05-09T08:02:08.968Z,70.30
2019-05-09T08:04:38.720Z,69.70
2019-05-09T08:07:08.549Z,69.60
2019-05-09T08:09:38.896Z,70.40
2019-05-09T08:12:08.577Z,69.10
2019-05-09T08:14:38.171Z,68.60
2019-05-09T08:17:08.577Z,68.80
2019-05-09T08:19:38.260Z,69.90
2019-05-09T08:22:08.092Z,70.00
2019-05-09T08:24:38.196Z,70.10
2019-05-09T08:27:08.594Z,69.90
2019-05-09T08:29:38.848Z,69.50
2019-05-09T08:32:09.119Z,68.10
2019-05-09T08:34:38.727Z,68.70
2019-05-09T08:37:08.320Z,69.30
2019-05-09T08:39:38.478Z,68.00
2019-05-09T08:42:08.716Z,67.30
2019-05-09T08:44:41.906Z,67.30
2019-05-09T08:47:09.353Z,67.20
2019-05-09T08:49:50.360Z,67.60
2019-05-09T08:52:20.144Z,67.20
2019-05-09T08:54:52.667Z,66.80
2019-05-09T08:57:22.309Z,66.50
2019-05-09T08:59:52.380Z,65.80
2019-05-09T09:02:22.570Z,65.50
2019-05-09T09:04:52.054Z,66.00
2019-05-09T09:07:21.791Z,65.30
2019-05-09T09:09:51.728Z,65.20
2019-05-09T09:12:30.379Z,65.20
2019-05-09T09:14:52.004Z,67.30
2019-05-09T09:17:21.826Z,66.90
2019-05-09T09:19:51.621Z,67.10
2019-05-09T09:22:20.898Z,68.70
2019-05-09T09:24:50.581Z,68.90
2019-05-09T09:27:20.146Z,67.00
2019-05-09T09:29:50.108Z,66.10
2019-05-09T09:32:19.410Z,67.40
2019-05-09T09:34:48.975Z,67.10
2019-05-09T09:37:18.677Z,66.50
2019-05-09T09:39:49.000Z,68.50
2019-05-09T09:42:19.944Z,69.00
2019-05-09T09:44:49.650Z,70.00
2019-05-09T09:47:23.114Z,68.20
2019-05-09T09:49:50.184Z,66.70
2019-05-09T09:52:19.471Z,66.10
2019-05-09T09:54:48.790Z,66.40
2019-05-09T09:57:19.020Z,66.00
2019-05-09T10:00:19.932Z,66.00
2019-05-09T10:02:49.498Z,66.00
2019-05-09T10:05:19.221Z,66.80
2019-05-09T10:07:52.858Z,66.80
2019-05-09T10:10:33.751Z,66.70
2019-05-09T10:13:04.320Z,67.70
2019-05-09T10:15:48.379Z,67.50
2019-05-09T10:18:28.273Z,67.50
2019-05-09T10:21:06.247Z,67.40
2019-05-09T10:23:37.848Z,67.50
2019-05-09T10:26:08.530Z,68.00
2019-05-09T10:28:45.489Z,68.20
2019-05-09T10:31:14.975Z,68.10
2019-05-09T10:33:44.331Z,67.50
2019-05-09T10:36:14.782Z,67.70
2019-05-09T10:38:44.078Z,66.00
2019-05-09T10:41:13.413Z,64.40
2019-05-09T10:44:08.470Z,64.20
2019-05-09T10:46:57.301Z,63.50
2019-05-09T10:49:21.571Z,64.00
2019-05-09T10:51:51.110Z,63.30
2019-05-09T10:54:21.221Z,63.00
2019-05-09T10:56:50.531Z,63.10
2019-05-09T10:59:19.848Z,64.10
2019-05-09T11:01:49.821Z,62.90
2019-05-09T11:04:19.452Z,63.80
2019-05-09T11:06:48.754Z,63.40
2019-05-09T11:09:18.485Z,64.00
2019-05-09T11:11:48.501Z,63.30
2019-05-09T11:14:32.208Z,63.20
2019-05-09T11:16:59.195Z,62.70
2019-05-09T11:19:20.969Z,63.80
2019-05-09T11:21:50.543Z,63.70
2019-05-09T11:24:20.322Z,64.50
2019-05-09T11:26:49.601Z,64.30
2019-05-09T11:29:20.704Z,64.40
2019-05-09T11:31:50.515Z,63.40
2019-05-09T11:34:20.585Z,63.90
2019-05-09T11:36:50.128Z,64.20
2019-05-09T11:39:35.170Z,65.10
2019-05-09T11:41:51.012Z,64.90
2019-05-09T11:44:20.802Z,64.50
2019-05-09T11:46:50.665Z,64.40
2019-05-09T11:49:19.973Z,64.20
2019-05-09T11:51:49.276Z,63.70
2019-05-09T11:54:19.449Z,62.40
2019-05-09T11:56:49.402Z,62.00
2019-05-09T11:59:19.094Z,62.30
2019-05-09T12:01:48.550Z,61.30
2019-05-09T12:04:18.687Z,60.70
2019-05-09T12:06:49.338Z,60.00
2019-05-09T12:09:19.536Z,59.30
2019-05-09T12:11:49.224Z,59.50
2019-05-09T12:14:18.679Z,58.60
2019-05-09T12:16:48.291Z,58.20
2019-05-09T12:19:18.173Z,58.20
2019-05-09T12:21:48.480Z,57.80
2019-05-09T12:24:18.709Z,56.70
2019-05-09T12:26:48.356Z,57.20
2019-05-09T12:29:19.611Z,57.10
2019-05-09T12:31:49.848Z,56.80
2019-05-09T12:34:19.561Z,57.10
2019-05-09T12:36:49.762Z,57.70
2019-05-09T12:39:19.553Z,58.60
2019-05-09T12:41:49.204Z,59.00
2019-05-09T12:44:18.812Z,59.70
2019-05-09T12:46:48.966Z,60.70
2019-05-09T12:49:20.288Z,62.10
2019-05-09T12:51:49.983Z,62.50
2019-05-09T12:54:19.616Z,63.60
2019-05-09T12:56:48.915Z,63.70
2019-05-09T12:59:18.851Z,64.00
2019-05-09T13:01:49.196Z,63.50
2019-05-09T13:04:18.859Z,64.30
2019-05-09T13:06:48.835Z,64.00
2019-05-09T13:09:18.416Z,64.40
2019-05-09T13:11:48.482Z,64.30
2019-05-09T13:14:19.249Z,64.50
2019-05-09T13:17:20.563Z,64.50
2019-05-09T13:19:49.823Z,64.70
2019-05-09T13:22:19.109Z,64.50
2019-05-09T13:24:48.718Z,64.50
2019-05-09T13:27:19.024Z,64.70
2019-05-09T13:29:49.572Z,64.50
2019-05-09T13:32:19.093Z,64.10
2019-05-09T13:34:48.763Z,64.10
2019-05-09T13:37:18.960Z,63.10
2019-05-09T13:39:48.713Z,62.70
2019-05-09T13:42:19.463Z,62.60
2019-05-09T13:44:49.704Z,63.00
2019-05-09T13:47:19.070Z,63.10
2019-05-09T13:49:50.089Z,62.40
2019-05-09T13:52:19.602Z,62.80
2019-05-09T13:54:48.879Z,63.10
2019-05-09T13:57:18.951Z,63.20
2019-05-09T13:59:48.896Z,62.00
2019-05-09T14:02:19.010Z,62.40
2019-05-09T14:04:48.960Z,62.60
2019-05-09T14:07:19.428Z,63.30
2019-05-09T14:09:48.965Z,63.70
2019-05-09T14:12:19.016Z,63.80
2019-05-09T14:14:48.730Z,63.60
2019-05-09T14:17:19.019Z,63.70
2019-05-09T14:19:51.123Z,63.20
2019-05-09T14:22:20.144Z,63.00
2019-05-09T14:24:49.560Z,63.00
2019-05-09T14:27:18.969Z,62.60
2019-05-09T14:29:49.703Z,62.60
2019-05-09T14:32:19.560Z,62.70
2019-05-09T14:34:48.907Z,62.90
2019-05-09T14:37:18.580Z,62.30
2019-05-09T14:39:57.911Z,62.30
2019-05-09T14:42:19.459Z,61.00
2019-05-09T14:44:49.926Z,61.10
2019-05-09T14:47:19.519Z,60.90
2019-05-09T14:49:50.295Z,61.20
2019-05-09T14:52:20.399Z,61.70
2019-05-09T14:54:51.223Z,61.10
2019-05-09T14:57:20.741Z,61.50
2019-05-09T14:59:50.215Z,62.40
2019-05-09T15:02:19.486Z,62.50
2019-05-09T15:04:48.890Z,62.70
2019-05-09T15:07:19.457Z,62.60
2019-05-09T15:09:49.495Z,63.00
2019-05-09T15:12:18.807Z,64.60
2019-05-09T15:14:48.454Z,65.70
2019-05-09T15:17:18.661Z,66.80
2019-05-09T15:19:57.483Z,67.30
2019-05-09T15:22:19.506Z,66.70
2019-05-09T15:24:49.127Z,67.80
2019-05-09T15:27:18.509Z,68.70
2019-05-09T15:29:48.608Z,70.50
2019-05-09T15:32:18.507Z,71.40
2019-05-09T15:34:47.890Z,71.90
2019-05-09T15:37:18.608Z,72.40
2019-05-09T15:39:48.516Z,72.00
2019-05-09T15:42:18.432Z,72.10
2019-05-09T15:44:47.913Z,70.50
2019-05-09T15:47:24.514Z,70.30
2019-05-09T15:49:54.350Z,69.40
2019-05-09T15:52:23.676Z,64.50
2019-05-09T15:54:53.412Z,64.90
2019-05-09T15:57:22.744Z,63.50
2019-05-09T15:59:52.704Z,63.40
2019-05-09T16:02:22.625Z,63.60
2019-05-09T16:04:52.155Z,64.50
2019-05-09T16:07:21.900Z,63.70
2019-05-09T16:09:51.239Z,64.30
2019-05-09T16:12:20.652Z,63.50
2019-05-09T16:14:50.379Z,61.50
2019-05-09T16:17:19.968Z,61.90
2019-05-09T16:19:49.603Z,63.30
2019-05-09T16:22:19.201Z,63.70
2019-05-09T16:24:49.195Z,64.80
2019-05-09T16:27:18.480Z,65.70
2019-05-09T16:29:48.690Z,64.00
2019-05-09T16:32:18.393Z,65.10
2019-05-09T16:34:47.933Z,65.50
2019-05-09T16:37:17.233Z,66.00
2019-05-09T16:39:47.654Z,64.00
2019-05-09T16:42:17.066Z,63.90
2019-05-09T16:44:48.119Z,65.10
2019-05-09T16:47:21.958Z,66.10
2019-05-09T16:49:49.491Z,66.40
2019-05-09T16:52:18.860Z,67.10
2019-05-09T16:54:50.293Z,67.80
2019-05-09T16:57:19.983Z,68.70
2019-05-09T16:59:49.512Z,68.20
2019-05-09T17:02:24.695Z,68.90
2019-05-09T17:04:50.448Z,69.00
2019-05-09T17:07:19.819Z,69.40
2019-05-09T17:09:49.400Z,69.50
2019-05-09T17:12:18.747Z,70.00
2019-05-09T17:14:48.145Z,69.80
2019-05-09T17:17:17.993Z,69.80
2019-05-09T17:19:48.059Z,69.50
2019-05-09T17:22:36.262Z,69.70
2019-05-09T17:25:07.944Z,70.20
2019-05-09T17:27:38.707Z,70.80
2019-05-09T17:30:08.658Z,71.20
2019-05-09T17:32:38.398Z,71.50
2019-05-09T17:35:08.310Z,71.60
2019-05-09T17:37:38.159Z,71.90
2019-05-09T17:40:07.960Z,70.90
2019-05-09T17:42:38.196Z,70.30
2019-05-09T17:45:08.480Z,70.30
2019-05-09T17:47:37.998Z,70.00
2019-05-09T17:50:08.261Z,70.10
2019-05-09T17:52:37.870Z,70.80
2019-05-09T17:55:07.481Z,70.80
2019-05-09T17:57:38.807Z,71.20
2019-05-09T18:00:09.960Z,71.90
2019-05-09T18:02:39.530Z,72.10
2019-05-09T18:05:08.829Z,72.50
2019-05-09T18:07:38.283Z,72.80
2019-05-09T18:10:08.087Z,72.80
2019-05-09T18:12:38.420Z,73.00
2019-05-09T18:15:08.650Z,73.50
2019-05-09T18:17:38.370Z,73.40
2019-05-09T18:20:08.607Z,73.90
2019-05-09T18:22:38.178Z,74.40
2019-05-09T18:25:09.412Z,74.50
2019-05-09T18:27:38.768Z,74.80
2019-05-09T18:30:09.163Z,75.00
2019-05-09T18:32:47.694Z,75.30
2019-05-09T18:35:19.682Z,75.70
2019-05-09T18:37:49.451Z,76.00
2019-05-09T18:40:19.275Z,76.30
2019-05-09T18:42:48.819Z,70.40
2019-05-09T18:45:20.200Z,70.50
2019-05-09T18:47:49.784Z,71.40
2019-05-09T18:50:19.146Z,72.60
2019-05-09T18:52:48.557Z,73.50
2019-05-09T18:55:19.725Z,74.50
2019-05-09T18:57:49.495Z,75.90
2019-05-09T19:00:21.358Z,77.20
2019-05-09T19:02:50.809Z,78.10
2019-05-09T19:05:20.628Z,80.40
2019-05-09T19:07:50.303Z,82.20
2019-05-09T19:10:19.666Z,84.50
2019-05-09T19:12:48.975Z,85.80
2019-05-09T19:15:37.294Z,88.20
2019-05-09T19:18:28.644Z,89.80
2019-05-09T19:21:04.180Z,90.80
2019-05-09T19:23:34.158Z,91.30
2019-05-09T19:26:06.164Z,91.90
2019-05-09T19:28:36.839Z,91.80
2019-05-09T19:31:06.155Z,92.10
2019-05-09T19:33:37.488Z,91.70
2019-05-09T19:36:06.778Z,92.10
2019-05-09T19:38:37.084Z,92.10
2019-05-09T19:41:06.724Z,92.10
2019-05-09T19:43:36.310Z,92.30
2019-05-09T19:46:05.884Z,92.40
2019-05-09T19:48:35.152Z,92.50
2019-05-09T19:51:04.447Z,92.60
2019-05-09T19:53:34.072Z,92.40
2019-05-09T19:56:03.370Z,92.90
2019-05-09T19:58:32.914Z,93.20
2019-05-09T20:01:02.325Z,93.40
2019-05-09T20:03:31.730Z,93.40
2019-05-09T20:06:01.157Z,93.50
2019-05-09T20:08:30.436Z,93.70
2019-05-09T20:11:06.426Z,93.90
2019-05-09T20:13:41.804Z,93.90
2019-05-09T20:16:11.373Z,93.70
2019-05-09T20:18:40.809Z,93.50
2019-05-09T20:21:10.672Z,93.50
2019-05-09T20:23:40.637Z,93.60
2019-05-09T20:26:10.247Z,93.80
2019-05-09T20:28:39.648Z,93.70
2019-05-09T20:31:09.432Z,93.60
2019-05-09T20:33:39.420Z,93.80
2019-05-09T20:36:09.204Z,93.70
2019-05-09T20:38:38.783Z,93.50
2019-05-09T20:41:08.293Z,93.60
2019-05-09T20:43:38.123Z,93.40
2019-05-09T20:46:10.845Z,93.60
2019-05-09T20:48:40.967Z,93.70
2019-05-09T20:51:10.670Z,93.80
2019-05-09T20:53:40.253Z,93.50
2019-05-09T20:56:09.775Z,93.60
2019-05-09T20:58:39.277Z,93.70
2019-05-09T21:01:08.749Z,93.50
2019-05-09T21:03:38.303Z,93.80
2019-05-09T21:06:07.857Z,93.60
2019-05-09T21:08:37.767Z,93.80
2019-05-09T21:11:07.268Z,93.80
2019-05-09T21:13:48.126Z,93.80
2019-05-09T21:16:08.679Z,93.70
2019-05-09T21:18:38.665Z,93.80
2019-05-09T21:21:08.814Z,93.70
2019-05-09T21:23:39.291Z,93.70
2019-05-09T21:26:09.375Z,93.60
2019-05-09T21:28:39.083Z,93.70
2019-05-09T21:31:09.435Z,93.40
2019-05-09T21:33:39.769Z,93.60
2019-05-09T21:36:11.350Z,93.50
2019-05-09T21:38:41.345Z,92.90
2019-05-09T21:41:11.777Z,93.30
2019-05-09T21:43:41.313Z,93.30
2019-05-09T21:46:12.581Z,93.20
2019-05-09T21:48:41.970Z,93.30
2019-05-09T21:51:11.748Z,93.60
2019-05-09T21:53:41.734Z,93.70
2019-05-09T21:56:11.405Z,93.90
2019-05-09T21:58:40.764Z,93.80
2019-05-09T22:01:14.579Z,93.70
2019-05-09T22:03:44.072Z,94.10
2019-05-09T22:06:14.086Z,94.20
2019-05-09T22:08:43.914Z,94.30
2019-05-09T22:14:02.594Z,94.40
2019-05-09T22:16:32.112Z,94.80
2019-05-09T22:19:01.818Z,94.80
2019-05-09T22:21:31.432Z,94.90
2019-05-09T22:24:00.830Z,95.00
2019-05-09T22:26:30.684Z,95.10
2019-05-09T22:28:59.971Z,95.00
2019-05-09T22:31:29.664Z,95.30
2019-05-09T22:33:59.130Z,95.20
2019-05-09T22:36:28.764Z,95.40
2019-05-09T22:38:58.059Z,95.40
2019-05-09T22:41:28.087Z,95.20
2019-05-09T22:43:58.089Z,95.00
2019-05-09T22:46:27.410Z,95.00
2019-05-09T22:48:56.745Z,94.80
2019-05-09T22:51:26.511Z,94.30
2019-05-09T22:54:11.157Z,94.30
2019-05-09T22:56:27.239Z,94.10
2019-05-09T22:58:56.538Z,93.30
2019-05-09T23:01:25.975Z,93.00
2019-05-09T23:03:55.587Z,92.80
2019-05-09T23:06:25.155Z,91.70
2019-05-09T23:08:54.616Z,91.80
2019-05-09T23:11:24.237Z,92.30
2019-05-09T23:13:53.560Z,92.40
2019-05-09T23:16:25.264Z,92.50
2019-05-09T23:18:54.775Z,92.00
2019-05-09T23:21:26.342Z,91.80
2019-05-09T23:23:58.758Z,91.60
2019-05-09T23:26:28.057Z,91.70
2019-05-09T23:28:57.351Z,92.00
2019-05-09T23:31:41.961Z,92.00
2019-05-09T23:34:11.836Z,91.50
2019-05-09T23:36:41.439Z,91.60
2019-05-09T23:39:25.631Z,91.70
2019-05-09T23:41:55.044Z,92.10
2019-05-09T23:44:24.604Z,92.10
2019-05-09T23:46:54.476Z,91.90
2019-05-09T23:49:24.518Z,92.40
2019-05-09T23:51:54.059Z,92.60
2019-05-09T23:54:47.021Z,91.90
2019-05-09T23:57:30.680Z,91.90
